Time;durP1;ratioP1;P1;durP2;ratioP2;P2;SDS_P1;SDS_P2;PMS_P1;PMS_P2;Temp;Humidity;BMP_temperature;BMP_pressure;BME280_temperature;BME280_humidity;BME280_pressure;Samples;Min_cycle;Max_cycle;Signal;HPM_P1;HPM_P2
2022/11/11 00:00:50;;;;;;;7.97;4.45;;;9.90;99.90;;;;;;5035513;28;20516;-66
2022/11/11 00:03:16;;;;;;;6.40;3.90;;;9.90;99.90;;;;;;5035793;28;20060;-65
2022/11/11 00:05:41;;;;;;;6.18;3.90;;;9.90;99.90;;;;;;5035664;28;20470;-66
2022/11/11 00:08:07;;;;;;;6.93;3.72;;;9.80;99.90;;;;;;5035324;28;20046;-65
2022/11/11 00:10:33;;;;;;;9.52;4.25;;;9.80;99.90;;;;;;5035820;28;20058;-66
2022/11/11 00:13:00;;;;;;;5.88;3.50;;;9.80;99.90;;;;;;5035573;28;20045;-66
2022/11/11 00:15:26;;;;;;;6.68;3.75;;;9.80;99.90;;;;;;5035567;28;20045;-66
2022/11/11 00:26:09;;;;;;;7.93;4.53;;;9.90;99.90;;;;;;5018406;28;20417;-66
2022/11/11 00:28:35;;;;;;;6.50;3.85;;;9.90;99.90;;;;;;5035239;28;20459;-65
2022/11/11 00:31:09;;;;;;;8.40;3.97;;;9.90;99.90;;;;;;5035356;28;20128;-65
2022/11/11 00:33:35;;;;;;;6.75;4.25;;;9.90;99.90;;;;;;5035267;28;20045;-65
2022/11/11 00:36:01;;;;;;;7.13;4.32;;;9.90;99.90;;;;;;5034317;28;20122;-66
2022/11/11 00:38:44;;;;;;;9.75;4.15;;;9.90;99.90;;;;;;5034784;28;20427;-65
2022/11/11 00:41:12;;;;;;;7.80;4.50;;;9.90;99.90;;;;;;5035143;28;20120;-65
2022/11/11 00:43:38;;;;;;;11.38;5.43;;;10.00;99.90;;;;;;5035036;28;20081;-66
2022/11/11 00:51:33;;;;;;;7.05;4.32;;;10.00;99.90;;;;;;5035354;28;20053;-65
2022/11/11 00:53:58;;;;;;;7.80;4.95;;;10.20;99.90;;;;;;5034865;28;20037;-66
2022/11/11 00:56:25;;;;;;;7.88;4.68;;;10.10;99.90;;;;;;5034874;28;20061;-66
2022/11/11 00:58:52;;;;;;;6.63;4.57;;;10.10;99.90;;;;;;5035082;28;20091;-66
2022/11/11 01:01:18;;;;;;;7.50;4.40;;;10.10;99.90;;;;;;5034372;28;20041;-66
2022/11/11 01:03:44;;;;;;;7.30;4.82;;;10.10;99.90;;;;;;5034681;28;20052;-65
2022/11/11 01:06:12;;;;;;;7.85;4.88;;;10.10;99.90;;;;;;5017118;28;20334;-66
2022/11/11 01:08:38;;;;;;;8.95;5.60;;;10.10;99.90;;;;;;5034963;28;20049;-65
2022/11/11 01:11:10;;;;;;;9.02;5.25;;;10.00;99.90;;;;;;5035080;28;20374;-65
2022/11/11 01:13:36;;;;;;;8.25;4.93;;;10.00;99.90;;;;;;5034599;28;20049;-66
2022/11/11 01:16:05;;;;;;;6.97;4.15;;;9.90;99.90;;;;;;5034465;28;20084;-66
2022/11/11 01:18:31;;;;;;;8.02;4.93;;;9.90;99.90;;;;;;5034376;28;20064;-66
2022/11/11 01:21:03;;;;;;;9.85;5.22;;;9.80;99.90;;;;;;5034342;28;20358;-66
2022/11/11 01:23:30;;;;;;;7.95;4.80;;;9.90;99.90;;;;;;5034256;28;20124;-66
2022/11/11 01:26:04;;;;;;;7.72;5.30;;;9.70;99.90;;;;;;5033840;28;20045;-65
2022/11/11 01:28:31;;;;;;;9.50;5.40;;;9.70;99.90;;;;;;5034972;28;20117;-65
2022/11/11 01:31:01;;;;;;;12.38;5.80;;;9.70;99.90;;;;;;5016696;28;20037;-66
2022/11/11 01:33:27;;;;;;;9.65;6.10;;;9.70;99.90;;;;;;5034125;28;20045;-66
2022/11/11 01:35:52;;;;;;;8.23;4.72;;;9.60;99.90;;;;;;5034319;28;20049;-66
2022/11/11 01:38:18;;;;;;;10.02;6.50;;;9.60;99.90;;;;;;5033753;28;20076;-66
2022/11/11 01:40:46;;;;;;;11.32;5.88;;;9.60;99.90;;;;;;5034007;28;20041;-66
2022/11/11 01:43:11;;;;;;;9.82;5.78;;;9.60;99.90;;;;;;5034086;28;20551;-66
2022/11/11 01:45:49;;;;;;;9.13;5.82;;;9.60;99.90;;;;;;5033856;28;20077;-65
2022/11/11 01:51:20;;;;;;;10.70;5.68;;;9.50;99.90;;;;;;5033871;28;20183;-66
2022/11/11 01:53:50;;;;;;;9.52;6.18;;;9.50;99.90;;;;;;5001566;28;20461;-66
2022/11/11 01:56:16;;;;;;;8.50;6.07;;;9.50;99.90;;;;;;5034348;28;20404;-65
2022/11/11 01:58:43;;;;;;;10.68;5.30;;;9.60;99.90;;;;;;5034426;28;20172;-66
2022/11/11 02:01:09;;;;;;;9.90;6.45;;;9.50;99.90;;;;;;5033594;28;20064;-65
2022/11/11 02:03:39;;;;;;;11.05;7.05;;;9.50;99.90;;;;;;5033657;28;20041;-65
2022/11/11 02:06:06;;;;;;;9.27;7.00;;;9.40;99.90;;;;;;5033475;28;20034;-66
2022/11/11 02:08:35;;;;;;;9.02;5.60;;;9.40;99.90;;;;;;5033665;28;20029;-66
2022/11/11 02:11:13;;;;;;;11.32;7.03;;;9.40;99.90;;;;;;5034037;28;20045;-65
2022/11/11 02:16:26;;;;;;;9.15;5.75;;;9.30;99.90;;;;;;5033900;28;20056;-66
2022/11/11 02:18:52;;;;;;;10.68;6.25;;;9.30;99.90;;;;;;5033413;28;20053;-66
2022/11/11 02:21:40;;;;;;;11.30;6.00;;;9.30;99.90;;;;;;5033421;28;20077;-66
2022/11/11 02:24:13;;;;;;;10.50;7.63;;;9.30;99.90;;;;;;5033452;28;20099;-65
2022/11/11 02:26:39;;;;;;;10.15;7.05;;;9.30;99.90;;;;;;5033912;28;20107;-66
2022/11/11 02:29:13;;;;;;;10.27;6.47;;;9.20;99.90;;;;;;5033234;28;20045;-67
2022/11/11 02:31:39;;;;;;;11.00;6.68;;;9.20;99.90;;;;;;5033813;28;20084;-67
2022/11/11 02:34:05;;;;;;;11.63;7.65;;;9.20;99.90;;;;;;5033108;28;20092;-67
2022/11/11 02:36:31;;;;;;;11.35;7.50;;;9.20;99.90;;;;;;5033153;28;20045;-67
2022/11/11 02:38:57;;;;;;;11.63;7.60;;;9.30;99.90;;;;;;5033351;28;20073;-67
2022/11/11 02:44:07;;;;;;;16.42;8.02;;;9.20;99.90;;;;;;5033652;28;20108;-67
2022/11/11 02:46:32;;;;;;;11.55;7.95;;;9.30;99.90;;;;;;5033184;28;20037;-67
2022/11/11 02:48:58;;;;;;;12.57;8.75;;;9.20;99.90;;;;;;5033147;28;20044;-67
2022/11/11 02:51:24;;;;;;;16.55;9.02;;;9.20;99.90;;;;;;5016441;28;20453;-66
2022/11/11 02:53:49;;;;;;;11.32;7.57;;;9.20;99.90;;;;;;5033425;28;20041;-66
2022/11/11 02:57:06;;;;;;;12.80;7.65;;;9.30;99.90;;;;;;5033436;28;20041;-66
2022/11/11 02:59:03;;;;;;;12.52;8.63;;;9.20;99.90;;;;;;5033655;28;20049;-66
2022/11/11 03:01:29;;;;;;;12.20;8.15;;;9.20;99.90;;;;;;5037020;28;20215;-66
2022/11/11 03:03:54;;;;;;;12.55;8.73;;;9.20;99.90;;;;;;5037587;28;20038;-66
2022/11/11 03:06:20;;;;;;;13.52;8.35;;;9.30;99.90;;;;;;5037060;28;20049;-66
2022/11/11 03:08:47;;;;;;;14.65;9.13;;;9.40;99.90;;;;;;5036383;28;20126;-66
2022/11/11 03:11:13;;;;;;;13.98;9.00;;;9.30;99.90;;;;;;5036785;28;20095;-66
2022/11/11 03:13:39;;;;;;;14.15;8.55;;;9.30;99.90;;;;;;5036724;28;20046;-67
2022/11/11 03:16:04;;;;;;;12.82;8.48;;;9.30;99.90;;;;;;5036893;28;20458;-66
2022/11/11 03:18:30;;;;;;;11.13;8.05;;;9.30;99.90;;;;;;5036685;28;20052;-67
2022/11/11 03:21:04;;;;;;;16.90;9.57;;;9.30;99.90;;;;;;5036609;28;20048;-66
2022/11/11 03:23:30;;;;;;;12.18;8.40;;;9.30;99.90;;;;;;5036666;28;20056;-66
2022/11/11 03:25:56;;;;;;;16.67;9.02;;;9.30;99.90;;;;;;5019129;28;20041;-67
2022/11/11 03:28:23;;;;;;;15.23;8.85;;;9.30;99.90;;;;;;5036389;28;20041;-67
2022/11/11 03:30:49;;;;;;;14.35;10.10;;;9.30;99.90;;;;;;5036383;28;20049;-66
2022/11/11 03:33:17;;;;;;;16.95;10.52;;;9.30;99.90;;;;;;5036271;28;20053;-66
2022/11/11 03:35:46;;;;;;;14.93;9.40;;;9.30;99.90;;;;;;5035941;28;20489;-66
2022/11/11 03:38:17;;;;;;;17.92;10.50;;;9.40;99.90;;;;;;5036254;28;20045;-66
2022/11/11 03:40:45;;;;;;;14.82;9.45;;;9.40;99.90;;;;;;5036702;28;20042;-67
2022/11/11 03:43:16;;;;;;;16.17;9.38;;;9.40;99.90;;;;;;5036173;28;20509;-66
2022/11/11 03:45:43;;;;;;;14.93;10.27;;;9.40;99.90;;;;;;5019037;28;20041;-67
2022/11/11 03:48:09;;;;;;;13.85;10.43;;;9.50;99.90;;;;;;5036097;28;20068;-66
2022/11/11 03:50:35;;;;;;;14.20;9.73;;;9.50;99.90;;;;;;5036022;28;20500;-66
2022/11/11 03:53:01;;;;;;;12.73;9.43;;;9.50;99.90;;;;;;5036730;28;20045;-67
2022/11/11 03:55:27;;;;;;;14.93;10.40;;;9.60;99.90;;;;;;5035944;28;20041;-66
2022/11/11 03:57:53;;;;;;;15.88;10.40;;;9.50;99.90;;;;;;5035858;28;20092;-66
2022/11/11 04:00:22;;;;;;;17.73;10.35;;;9.60;99.90;;;;;;5036703;28;20474;-66
2022/11/11 04:11:07;;;;;;;16.80;10.98;;;9.70;99.90;;;;;;5034221;28;20132;-67
2022/11/11 04:16:17;;;;;;;18.35;10.30;;;9.70;99.90;;;;;;5035579;28;20103;-66
2022/11/11 04:21:42;;;;;;;19.42;11.32;;;9.80;99.90;;;;;;5035802;28;20049;-66
2022/11/11 04:27:00;;;;;;;19.00;10.70;;;9.90;99.90;;;;;;5035431;28;20111;-66
2022/11/11 04:29:29;;;;;;;17.35;11.95;;;10.00;99.90;;;;;;5035291;28;20121;-66
2022/11/11 04:34:47;;;;;;;14.43;9.82;;;10.00;99.90;;;;;;5035062;28;20045;-67
2022/11/11 04:37:13;;;;;;;19.20;12.27;;;10.00;99.90;;;;;;5035930;28;20044;-67
2022/11/11 04:42:24;;;;;;;17.80;11.93;;;10.10;99.90;;;;;;5035031;28;20060;-67
2022/11/11 04:47:35;;;;;;;16.15;11.95;;;10.10;99.90;;;;;;5034708;28;20477;-67
2022/11/11 04:50:00;;;;;;;16.45;10.32;;;10.10;99.90;;;;;;5034909;28;20037;-66
2022/11/11 04:52:26;;;;;;;14.18;9.95;;;10.20;99.90;;;;;;5034969;28;20045;-66
2022/11/11 04:57:42;;;;;;;17.60;10.75;;;10.20;99.90;;;;;;5034889;28;20060;-66
2022/11/11 05:00:14;;;;;;;16.48;11.50;;;10.20;99.90;;;;;;5035029;28;20528;-66
2022/11/11 05:05:26;;;;;;;17.40;11.02;;;10.20;99.90;;;;;;5034716;28;20527;-66
2022/11/11 05:10:36;;;;;;;14.00;10.18;;;10.20;99.90;;;;;;5034703;28;20149;-67
2022/11/11 05:21:26;;;;;;;16.50;10.52;;;10.20;99.90;;;;;;5034421;28;20056;-66
2022/11/11 05:26:36;;;;;;;16.80;11.63;;;10.30;99.90;;;;;;5034807;28;20052;-66
2022/11/11 05:29:02;;;;;;;16.75;10.43;;;10.20;99.90;;;;;;5034681;28;20334;-66
2022/11/11 05:31:29;;;;;;;18.95;10.02;;;10.20;99.90;;;;;;5034193;28;20044;-67
2022/11/11 05:33:54;;;;;;;16.05;10.50;;;10.20;99.90;;;;;;5034184;28;20055;-66
2022/11/11 05:36:20;;;;;;;16.10;10.75;;;10.20;99.90;;;;;;5033946;28;20116;-66
2022/11/11 05:38:46;;;;;;;15.43;10.30;;;10.20;99.90;;;;;;5034068;28;20037;-67
2022/11/11 05:41:12;;;;;;;17.55;10.13;;;10.20;99.90;;;;;;5016695;28;20041;-67
2022/11/11 05:43:37;;;;;;;13.80;9.48;;;10.10;99.90;;;;;;5033965;28;20041;-66
2022/11/11 05:46:03;;;;;;;15.77;9.43;;;10.10;99.90;;;;;;5033934;28;20462;-67
2022/11/11 05:48:30;;;;;;;14.15;9.10;;;10.10;99.90;;;;;;5033730;28;20037;-67
2022/11/11 05:50:59;;;;;;;15.02;10.05;;;10.10;99.90;;;;;;5016203;28;20043;-67
2022/11/11 05:53:25;;;;;;;14.00;8.95;;;10.10;99.90;;;;;;5033809;28;20037;-67
2022/11/11 05:55:50;;;;;;;12.88;9.10;;;10.10;99.90;;;;;;5034025;28;20128;-66
2022/11/11 05:58:17;;;;;;;18.23;9.85;;;10.20;99.90;;;;;;5033687;28;20041;-66
2022/11/11 06:00:43;;;;;;;15.00;10.13;;;10.10;99.90;;;;;;5034512;28;20366;-67
2022/11/11 06:03:09;;;;;;;14.50;9.45;;;10.20;99.90;;;;;;5016535;28;20044;-67
2022/11/11 06:05:37;;;;;;;15.40;9.30;;;10.20;99.90;;;;;;5034338;28;20041;-68
2022/11/11 06:08:04;;;;;;;15.82;11.25;;;10.20;99.90;;;;;;5033589;28;20146;-67
2022/11/11 06:10:29;;;;;;;14.40;10.30;;;10.20;99.90;;;;;;4999223;28;20088;-67
2022/11/11 06:13:04;;;;;;;15.82;9.80;;;10.20;99.90;;;;;;5033982;28;20111;-66
2022/11/11 06:15:40;;;;;;;12.68;9.00;;;10.20;99.90;;;;;;5017114;28;20045;-67
2022/11/11 06:18:06;;;;;;;14.13;9.25;;;10.20;99.90;;;;;;5033188;28;20563;-67
2022/11/11 06:20:34;;;;;;;13.38;8.57;;;10.20;99.90;;;;;;5015824;28;20046;-67
2022/11/11 06:23:01;;;;;;;13.95;9.10;;;10.20;99.90;;;;;;5033310;28;20085;-67
2022/11/11 06:28:17;;;;;;;13.45;8.38;;;10.20;99.90;;;;;;5034122;28;20080;-67
2022/11/11 06:30:43;;;;;;;14.13;8.95;;;10.20;99.90;;;;;;5033366;28;20072;-67
2022/11/11 06:33:09;;;;;;;14.07;8.73;;;10.30;99.90;;;;;;5033167;28;20049;-66
2022/11/11 06:35:37;;;;;;;13.55;8.20;;;10.20;99.90;;;;;;5032332;28;20095;-66
2022/11/11 06:38:04;;;;;;;12.80;8.63;;;10.30;99.90;;;;;;5033136;28;20044;-66
2022/11/11 06:40:30;;;;;;;13.27;8.88;;;10.30;99.90;;;;;;5015956;28;20046;-66
2022/11/11 06:42:59;;;;;;;12.73;8.77;;;10.30;99.90;;;;;;5033187;28;20205;-66
2022/11/11 06:45:28;;;;;;;14.52;9.98;;;10.30;99.90;;;;;;5033088;28;20088;-67
2022/11/11 06:47:54;;;;;;;14.98;9.25;;;10.30;99.90;;;;;;5033031;28;20043;-66
2022/11/11 06:50:20;;;;;;;13.40;8.52;;;10.30;99.90;;;;;;5033479;28;20045;-66
2022/11/11 06:52:46;;;;;;;14.52;8.43;;;10.30;99.90;;;;;;5033042;28;20057;-66
2022/11/11 06:55:12;;;;;;;13.07;9.05;;;10.30;99.90;;;;;;5016159;28;20041;-66
2022/11/11 06:57:38;;;;;;;14.30;9.55;;;10.30;99.90;;;;;;5032977;28;20037;-66
2022/11/11 07:00:05;;;;;;;13.50;8.98;;;10.30;99.90;;;;;;5033602;28;20094;-66
2022/11/11 07:02:31;;;;;;;15.70;8.82;;;10.30;99.90;;;;;;5033245;28;20052;-66
2022/11/11 07:04:56;;;;;;;12.52;7.55;;;10.30;99.90;;;;;;5032742;28;20041;-66
2022/11/11 07:07:22;;;;;;;12.65;9.00;;;10.20;99.90;;;;;;5032557;28;20041;-66
2022/11/11 07:09:48;;;;;;;14.10;9.57;;;10.20;99.90;;;;;;5014239;28;20057;-67
2022/11/11 07:12:14;;;;;;;12.45;9.02;;;10.20;99.90;;;;;;5032374;28;20072;-66
2022/11/11 07:14:39;;;;;;;14.48;9.77;;;10.20;99.90;;;;;;5033210;28;20124;-63
2022/11/11 07:17:05;;;;;;;15.07;9.35;;;10.20;99.90;;;;;;5032675;28;20045;-63
2022/11/11 07:19:31;;;;;;;15.30;8.75;;;10.30;99.90;;;;;;5032747;28;20045;-63
2022/11/11 07:21:56;;;;;;;13.02;9.15;;;10.20;99.90;;;;;;5032592;28;20044;-63
2022/11/11 07:24:22;;;;;;;15.10;9.18;;;10.20;99.90;;;;;;5015084;28;20116;-63
2022/11/11 07:26:48;;;;;;;15.07;8.90;;;10.20;99.90;;;;;;5032639;28;20088;-63
2022/11/11 07:29:14;;;;;;;13.95;8.43;;;10.20;99.90;;;;;;5032562;28;20040;-63
2022/11/11 07:31:40;;;;;;;13.98;8.68;;;10.20;99.90;;;;;;5032705;28;20037;-64
2022/11/11 07:34:06;;;;;;;14.23;8.57;;;10.20;99.90;;;;;;5032563;28;20045;-63
2022/11/11 07:36:32;;;;;;;13.35;8.13;;;10.20;99.90;;;;;;5014894;28;20041;-63
2022/11/11 07:38:58;;;;;;;12.65;8.35;;;10.20;99.90;;;;;;5015054;28;20116;-63
2022/11/11 07:41:24;;;;;;;15.57;9.00;;;10.20;99.90;;;;;;5032626;28;20120;-63
2022/11/11 07:43:50;;;;;;;13.73;8.50;;;10.20;99.90;;;;;;5032536;28;20073;-63
2022/11/11 07:46:16;;;;;;;13.13;9.32;;;10.20;99.90;;;;;;5034812;28;20405;-63
2022/11/11 07:48:41;;;;;;;13.30;8.32;;;10.20;99.90;;;;;;5018427;28;20049;-64
2022/11/11 07:51:07;;;;;;;14.27;9.48;;;10.20;99.90;;;;;;5035785;28;20041;-63
2022/11/11 07:53:33;;;;;;;14.68;8.70;;;10.20;99.90;;;;;;5036037;28;20128;-64
2022/11/11 07:55:58;;;;;;;14.25;8.80;;;10.30;99.90;;;;;;5036210;28;20046;-64
2022/11/11 07:58:24;;;;;;;13.25;8.30;;;10.30;99.90;;;;;;5036361;28;20120;-63
2022/11/11 08:00:50;;;;;;;12.57;8.75;;;10.30;99.90;;;;;;5035921;28;20474;-64
2022/11/11 08:03:16;;;;;;;12.77;8.57;;;10.20;99.90;;;;;;5035748;28;20041;-64
2022/11/11 08:05:42;;;;;;;13.10;8.40;;;10.20;99.90;;;;;;5035883;28;20142;-64
2022/11/11 08:08:09;;;;;;;12.90;8.13;;;10.20;99.90;;;;;;5035798;28;20077;-64
2022/11/11 08:10:36;;;;;;;12.02;8.68;;;10.20;99.90;;;;;;5017719;28;20497;-63
2022/11/11 08:15:46;;;;;;;12.45;8.98;;;10.20;99.90;;;;;;5035710;28;20053;-64
2022/11/11 08:18:12;;;;;;;11.57;8.52;;;10.20;99.90;;;;;;5034844;28;20044;-66
2022/11/11 08:20:38;;;;;;;14.02;9.00;;;10.20;99.90;;;;;;5018102;28;20358;-68
2022/11/11 08:23:04;;;;;;;14.98;7.75;;;10.20;99.90;;;;;;5035318;28;20037;-67
2022/11/11 08:25:30;;;;;;;13.38;9.02;;;10.30;99.90;;;;;;5035409;28;20091;-68
2022/11/11 08:28:01;;;;;;;14.57;8.20;;;10.30;99.90;;;;;;5035188;28;20041;-68
2022/11/11 08:30:27;;;;;;;14.45;9.27;;;10.30;99.90;;;;;;5035803;28;20037;-68
2022/11/11 08:33:04;;;;;;;13.95;8.57;;;10.20;99.90;;;;;;5017676;28;20049;-68
2022/11/11 08:35:31;;;;;;;12.02;8.05;;;10.20;99.90;;;;;;5035601;28;20454;-68
2022/11/11 08:38:01;;;;;;;12.85;8.52;;;10.30;99.90;;;;;;5018379;28;20381;-68
2022/11/11 08:40:27;;;;;;;11.35;7.47;;;10.30;99.90;;;;;;5034975;28;20076;-68
2022/11/11 08:42:57;;;;;;;12.70;7.97;;;10.30;99.90;;;;;;5034741;28;20041;-68
2022/11/11 08:45:23;;;;;;;14.13;9.07;;;10.30;99.90;;;;;;5018222;28;20045;-67
2022/11/11 08:47:49;;;;;;;13.05;8.73;;;10.60;99.90;;;;;;5034644;28;20474;-67
2022/11/11 08:50:16;;;;;;;12.60;9.07;;;10.40;99.90;;;;;;5034715;28;20045;-67
2022/11/11 08:52:48;;;;;;;13.60;8.23;;;10.30;99.90;;;;;;5034671;28;20053;-67
2022/11/11 08:55:14;;;;;;;14.45;9.02;;;10.30;99.90;;;;;;5034889;28;20071;-67
2022/11/11 08:57:40;;;;;;;13.10;7.80;;;10.40;99.90;;;;;;5016498;28;20128;-68
2022/11/11 09:00:07;;;;;;;13.70;8.07;;;10.30;99.90;;;;;;5017202;28;20462;-68
2022/11/11 09:02:33;;;;;;;15.38;8.98;;;10.40;99.90;;;;;;5034473;28;20041;-67
2022/11/11 09:04:59;;;;;;;12.65;8.77;;;10.40;99.90;;;;;;5035253;28;20052;-68
2022/11/11 09:07:26;;;;;;;12.77;8.57;;;10.50;99.90;;;;;;5017264;28;20398;-67
2022/11/11 09:09:52;;;;;;;13.77;8.43;;;10.40;99.90;;;;;;5016221;28;20453;-67
2022/11/11 09:12:18;;;;;;;11.70;8.85;;;10.50;99.90;;;;;;5034836;28;20111;-67
2022/11/11 09:14:44;;;;;;;15.15;8.73;;;10.50;99.90;;;;;;5016919;28;20053;-67
2022/11/11 09:17:10;;;;;;;12.88;8.85;;;10.50;99.90;;;;;;5016668;28;20041;-67
2022/11/11 09:19:36;;;;;;;11.02;7.43;;;10.50;99.90;;;;;;5034684;28;20049;-67
2022/11/11 09:22:02;;;;;;;14.48;9.00;;;10.50;99.90;;;;;;5034148;28;20045;-67
2022/11/11 09:24:27;;;;;;;11.65;7.72;;;10.50;99.90;;;;;;5034194;28;20041;-67
2022/11/11 09:26:53;;;;;;;13.38;8.63;;;10.50;99.90;;;;;;5034172;28;20052;-68
2022/11/11 09:29:19;;;;;;;15.07;8.57;;;10.60;99.90;;;;;;5033993;28;20049;-68
2022/11/11 09:31:45;;;;;;;13.73;9.10;;;10.50;99.90;;;;;;5034629;28;20088;-67
2022/11/11 09:34:12;;;;;;;15.05;8.55;;;10.50;99.90;;;;;;5016539;28;20526;-68
2022/11/11 09:36:38;;;;;;;17.42;10.57;;;10.50;99.90;;;;;;5033874;28;20046;-68
2022/11/11 09:39:03;;;;;;;14.77;9.93;;;10.50;99.90;;;;;;5033815;28;20049;-68
2022/11/11 09:41:57;;;;;;;16.92;10.57;;;10.50;99.90;;;;;;5034363;28;20127;-68
2022/11/11 09:44:50;;;;;;;14.63;9.70;;;10.40;99.90;;;;;;5033609;28;20049;-67
2022/11/11 09:47:25;;;;;;;15.20;10.38;;;10.50;99.90;;;;;;5033594;28;20042;-67
2022/11/11 09:49:59;;;;;;;15.32;9.23;;;10.50;99.90;;;;;;5034147;28;20183;-67
2022/11/11 09:52:28;;;;;;;13.25;9.00;;;10.70;99.90;;;;;;5033305;28;20482;-67
2022/11/11 09:54:59;;;;;;;15.27;9.50;;;10.40;99.90;;;;;;5033471;28;20052;-67
2022/11/11 09:57:28;;;;;;;14.23;9.00;;;10.40;99.90;;;;;;5033585;28;20393;-67
2022/11/11 09:59:57;;;;;;;15.40;9.23;;;10.40;99.90;;;;;;5033554;28;20068;-63
2022/11/11 10:02:42;;;;;;;12.73;8.93;;;10.40;99.90;;;;;;5033508;28;20155;-64
2022/11/11 10:05:53;;;;;;;15.10;8.95;;;10.30;99.90;;;;;;5034208;28;20045;-64
2022/11/11 10:08:29;;;;;;;13.90;9.23;;;10.30;99.90;;;;;;5015324;28;20371;-64
2022/11/11 10:11:00;;;;;;;11.07;8.00;;;10.30;99.90;;;;;;5033267;28;20057;-64
2022/11/11 10:13:35;;;;;;;13.95;8.15;;;10.30;99.90;;;;;;5034044;28;20051;-64
2022/11/11 10:16:06;;;;;;;12.48;9.23;;;10.30;99.90;;;;;;5033146;28;20056;-64
2022/11/11 10:18:46;;;;;;;12.73;8.85;;;10.30;99.90;;;;;;5032933;28;20497;-64
2022/11/11 10:21:21;;;;;;;13.48;8.90;;;10.30;99.90;;;;;;5032706;28;20561;-64
2022/11/11 10:23:49;;;;;;;11.80;7.28;;;10.30;99.90;;;;;;5033834;28;20049;-63
2022/11/11 10:26:19;;;;;;;12.32;8.25;;;10.30;99.90;;;;;;5031936;28;20057;-63
2022/11/11 10:28:44;;;;;;;12.50;7.90;;;10.20;99.90;;;;;;5032536;28;20494;-64
2022/11/11 10:31:19;;;;;;;11.45;8.02;;;10.20;99.90;;;;;;5033030;28;20050;-64
2022/11/11 10:34:10;;;;;;;12.35;8.00;;;10.20;99.90;;;;;;5033519;28;20053;-63
2022/11/11 10:36:42;;;;;;;11.98;7.90;;;10.20;99.90;;;;;;5032665;28;20471;-64
2022/11/11 10:39:12;;;;;;;11.73;7.70;;;10.20;99.90;;;;;;5033257;28;20057;-64
2022/11/11 10:41:47;;;;;;;12.02;7.50;;;10.20;99.90;;;;;;5032578;28;20511;-64
2022/11/11 10:44:32;;;;;;;11.32;8.02;;;10.20;99.90;;;;;;5033518;28;20049;-64
2022/11/11 10:47:03;;;;;;;10.50;8.35;;;10.20;99.90;;;;;;5033056;28;20108;-64
2022/11/11 10:49:33;;;;;;;10.55;8.02;;;10.20;99.90;;;;;;5015285;28;20099;-64
2022/11/11 10:52:18;;;;;;;12.60;8.48;;;10.20;99.90;;;;;;5033565;28;20054;-64
2022/11/11 10:54:53;;;;;;;11.65;7.80;;;10.30;99.90;;;;;;5033115;28;20143;-64
2022/11/11 10:57:44;;;;;;;10.35;6.63;;;10.30;99.90;;;;;;5033515;28;20045;-64
2022/11/11 11:00:13;;;;;;;9.57;6.90;;;10.30;99.90;;;;;;4987628;28;20494;-64
2022/11/11 11:02:48;;;;;;;11.30;7.10;;;10.40;99.90;;;;;;5032241;28;20057;-64
2022/11/11 11:05:40;;;;;;;11.02;7.20;;;10.50;99.90;;;;;;5032619;28;20132;-64
2022/11/11 11:08:11;;;;;;;8.40;5.45;;;10.70;99.90;;;;;;5033257;28;20410;-64
2022/11/11 11:10:48;;;;;;;7.95;5.93;;;10.90;99.90;;;;;;5033077;28;20446;-64
2022/11/11 11:13:22;;;;;;;9.48;7.22;;;11.00;99.90;;;;;;5032595;28;20098;-64
2022/11/11 11:15:55;;;;;;;9.00;6.18;;;11.00;99.90;;;;;;5015614;28;20057;-64
2022/11/11 11:18:21;;;;;;;9.23;7.43;;;11.10;99.90;;;;;;5032741;28;20490;-64
2022/11/11 11:21:04;;;;;;;11.68;6.97;;;11.30;99.90;;;;;;5034262;28;20041;-64
2022/11/11 11:23:44;;;;;;;8.77;6.53;;;11.30;99.90;;;;;;5036680;28;20045;-65
2022/11/11 11:26:12;;;;;;;9.52;5.78;;;11.30;99.90;;;;;;5036309;28;20126;-64
2022/11/11 11:28:58;;;;;;;8.80;6.45;;;11.30;99.90;;;;;;5018813;28;20140;-64
2022/11/11 11:31:39;;;;;;;8.63;5.97;;;11.30;99.90;;;;;;5036343;28;20091;-64
2022/11/11 11:34:05;;;;;;;9.63;6.18;;;11.40;99.90;;;;;;5036448;28;20038;-65
2022/11/11 11:36:31;;;;;;;9.48;6.00;;;11.40;99.90;;;;;;5018343;28;20057;-64
2022/11/11 11:38:56;;;;;;;7.43;5.70;;;11.50;99.90;;;;;;5036529;28;20374;-64
2022/11/11 11:41:40;;;;;;;8.80;6.25;;;11.50;99.90;;;;;;5036790;28;20042;-65
2022/11/11 11:44:33;;;;;;;9.10;5.45;;;11.60;99.90;;;;;;5019233;28;20057;-65
2022/11/11 11:47:20;;;;;;;10.68;6.57;;;11.70;99.90;;;;;;5029804;28;20196;-64
2022/11/11 11:49:57;;;;;;;;;;;11.70;99.90;;;;;;5036847;28;20042;-64
2022/11/11 11:52:34;;;;;;;9.05;5.72;;;11.80;99.90;;;;;;5035980;28;19974;-64
2022/11/11 11:55:21;;;;;;;7.35;5.55;;;11.90;99.90;;;;;;5035916;28;20092;-65
2022/11/11 11:57:50;;;;;;;8.57;6.53;;;12.00;99.90;;;;;;5035681;28;20072;-64
2022/11/11 12:00:27;;;;;;;7.78;5.82;;;12.00;99.90;;;;;;5035840;28;20045;-64
2022/11/11 12:03:01;;;;;;;8.32;5.72;;;12.10;99.90;;;;;;5035638;28;20042;-64
2022/11/11 12:05:41;;;;;;;7.45;6.10;;;12.00;99.90;;;;;;5036212;28;20056;-64
2022/11/11 12:08:32;;;;;;;8.13;5.90;;;12.00;99.90;;;;;;5035738;28;20456;-64
2022/11/11 12:11:01;;;;;;;9.18;6.47;;;11.90;99.90;;;;;;5035829;28;20053;-64
2022/11/11 12:14:04;;;;;;;9.15;6.32;;;11.90;99.90;;;;;;5018502;28;20058;-64
2022/11/11 12:16:37;;;;;;;9.07;5.68;;;12.00;99.90;;;;;;5035499;28;20049;-65
2022/11/11 12:19:31;;;;;;;9.73;5.60;;;11.90;99.90;;;;;;5035968;28;20072;-64
2022/11/11 12:22:04;;;;;;;8.20;6.28;;;11.90;99.90;;;;;;5035630;28;20054;-65
2022/11/11 12:24:48;;;;;;;9.98;6.57;;;11.90;99.90;;;;;;5035426;28;20050;-65
2022/11/11 12:27:44;;;;;;;8.20;5.60;;;11.90;99.90;;;;;;5034964;28;20489;-66
2022/11/11 12:30:28;;;;;;;8.68;5.97;;;11.90;99.90;;;;;;5035230;28;20077;-65
2022/11/11 12:33:14;;;;;;;8.63;5.80;;;11.80;99.90;;;;;;5034431;28;20045;-65
2022/11/11 12:35:57;;;;;;;8.05;5.20;;;11.90;99.90;;;;;;5034973;28;20042;-65
2022/11/11 12:38:53;;;;;;;7.80;5.60;;;11.90;99.90;;;;;;5034861;28;20164;-65
2022/11/11 12:41:55;;;;;;;7.75;5.20;;;11.90;99.90;;;;;;5034702;28;20049;-65
2022/11/11 12:44:36;;;;;;;8.38;5.22;;;11.90;99.90;;;;;;5035360;28;20093;-64
2022/11/11 12:47:36;;;;;;;7.72;5.57;;;11.90;99.90;;;;;;5035224;28;20045;-64
2022/11/11 12:50:14;;;;;;;8.02;5.47;;;12.00;99.90;;;;;;5035073;28;20046;-64
2022/11/11 12:52:49;;;;;;;7.78;4.95;;;12.00;99.90;;;;;;5034686;28;20387;-65
2022/11/11 12:55:26;;;;;;;7.60;4.97;;;12.00;99.90;;;;;;5017102;28;20050;-65
2022/11/11 12:58:21;;;;;;;6.72;4.72;;;12.00;99.90;;;;;;5034973;28;20156;-64
2022/11/11 13:01:03;;;;;;;7.85;4.50;;;12.00;99.90;;;;;;4981351;28;20090;-64
2022/11/11 13:03:46;;;;;;;7.15;4.75;;;12.00;99.90;;;;;;5035174;28;20054;-64
2022/11/11 13:06:29;;;;;;;8.05;4.30;;;12.00;99.90;;;;;;5034938;28;20056;-64
2022/11/11 13:09:19;;;;;;;7.43;4.63;;;12.10;99.90;;;;;;5034319;28;20132;-64
2022/11/11 13:12:08;;;;;;;8.43;5.13;;;12.20;99.90;;;;;;5034811;28;20056;-64
2022/11/11 13:15:09;;;;;;;8.38;4.90;;;12.30;99.90;;;;;;5034325;28;20045;-64
2022/11/11 13:17:36;;;;;;;9.10;4.90;;;12.40;99.90;;;;;;5034531;28;20058;-66
2022/11/11 13:20:25;;;;;;;6.93;4.28;;;12.40;99.90;;;;;;5034094;28;20398;-66
2022/11/11 13:22:51;;;;;;;6.25;3.92;;;12.40;99.90;;;;;;5017616;28;20053;-66
2022/11/11 13:25:26;;;;;;;6.47;3.92;;;12.40;99.90;;;;;;5034303;28;20458;-67
2022/11/11 13:27:54;;;;;;;5.93;3.67;;;12.40;99.90;;;;;;5017084;28;20056;-66
2022/11/11 13:30:38;;;;;;;5.88;4.05;;;12.30;99.90;;;;;;5016872;28;20454;-67
2022/11/11 13:33:16;;;;;;;5.60;4.28;;;12.40;99.90;;;;;;5034274;28;20363;-65
2022/11/11 13:36:00;;;;;;;7.38;4.03;;;12.40;99.90;;;;;;5034710;28;20432;-65
2022/11/11 13:38:26;;;;;;;6.22;3.65;;;12.30;99.90;;;;;;5016511;28;20107;-65
2022/11/11 13:40:55;;;;;;;7.45;4.82;;;12.30;99.90;;;;;;5033523;28;20088;-65
2022/11/11 13:43:28;;;;;;;6.43;3.95;;;12.30;99.90;;;;;;5033834;28;20269;-65
2022/11/11 13:45:57;;;;;;;8.70;4.40;;;12.30;99.90;;;;;;5034025;28;20041;-65
2022/11/11 13:48:45;;;;;;;6.78;4.03;;;12.20;99.90;;;;;;5033640;28;20050;-65
2022/11/11 13:51:30;;;;;;;6.22;3.97;;;12.20;99.90;;;;;;5033776;28;20049;-65
2022/11/11 13:53:58;;;;;;;7.10;4.15;;;12.20;99.90;;;;;;5033343;28;20498;-65
2022/11/11 13:56:38;;;;;;;7.97;3.88;;;12.20;99.90;;;;;;5033600;28;20045;-64
2022/11/11 13:59:06;;;;;;;7.80;4.20;;;12.10;99.90;;;;;;5033944;28;20052;-68
2022/11/11 14:01:37;;;;;;;7.57;4.32;;;12.10;99.90;;;;;;5033421;28;20041;-68
2022/11/11 14:04:05;;;;;;;6.32;3.88;;;12.10;99.90;;;;;;5034402;28;20085;-69
2022/11/11 14:06:33;;;;;;;5.22;3.63;;;12.00;99.90;;;;;;5033330;28;20050;-69
2022/11/11 14:09:00;;;;;;;6.53;4.72;;;12.10;99.90;;;;;;5033318;28;20042;-68
2022/11/11 14:11:26;;;;;;;6.60;4.10;;;12.10;99.90;;;;;;5033130;28;20477;-69
2022/11/11 14:13:53;;;;;;;6.47;3.67;;;12.10;99.90;;;;;;5032297;28;20132;-68